WetterOnline ( https://www.wetteronline.de )

Wetter aktuell Mannheim

Aktuelles Wetter: Mannheim (100m)

6-stündlich | Neueste Meldungen
Ortszeit Temperatur Wetter
Sa, 25.05. 20:00 21.6° C wolkenlos
Sa, 25.05. 14:00 20.5° C leicht bewölkt
Sa, 25.05. 8:00 13.7° C bewölkt
Sa, 25.05. 2:00 12.7° C wolkig
Fr, 24.05. 20:00 19.0° C wolkig
Fr, 24.05. 14:00 18.1° C wolkig
Fr, 24.05. 8:00 13.1° C Regen
Fr, 24.05. 2:00 13.1° C leichter Regen
Ortszeit Temperatur Wetter
Sa, 25.05. 23:00 14.4° C wolkenlos
Sa, 25.05. 22:50 14.4° C wolkenlos
Sa, 25.05. 22:40 13.8° C wolkenlos
Sa, 25.05. 22:30 15.0° C leicht bewölkt
Sa, 25.05. 22:20 15.0° C leicht bewölkt
Sa, 25.05. 22:10 15.7° C bewölkt
Sa, 25.05. 22:00 17.7° C bedeckt
Sa, 25.05. 21:30 19.1° C bedeckt
Sa, 25.05. 21:00 19.6° C bewölkt
Sa, 25.05. 20:30 20.9° C fast wolkenlos
Sa, 25.05. 20:00 21.6° C wolkenlos
Ortszeit Relative Feuchte Sichtweite
Sa, 25.05. 20:00 46% 65 km
Sa, 25.05. 14:00 48% 60 km
Sa, 25.05. 8:00 89% 45 km
Sa, 25.05. 2:00 94% 40 km
Fr, 24.05. 20:00 64% 65 km
Fr, 24.05. 14:00 70% 50 km
Fr, 24.05. 8:00 97% 6 km
Fr, 24.05. 2:00 96% 9 km
Ortszeit Relative Feuchte Sichtweite
Sa, 25.05. 23:00 86% 45 km
Sa, 25.05. 22:50 86% -
Sa, 25.05. 22:40 87% -
Sa, 25.05. 22:30 82% 60 km
Sa, 25.05. 22:20 82% -
Sa, 25.05. 22:10 80% -
Sa, 25.05. 22:00 67% 50 km
Sa, 25.05. 21:30 61% >70 km
Sa, 25.05. 21:00 60% >70 km
Sa, 25.05. 20:30 51% 55 km
Sa, 25.05. 20:00 46% 65 km
Ortszeit Niederschlagsmenge Niederschlagsart
Sa, 25.05. 20:00 0.0 l/m2 in 12 Std. -
Sa, 25.05. 14:00 0.0 l/m2 in 6 Std. -
Sa, 25.05. 8:00 0.0 l/m2 in 12 Std. -
Sa, 25.05. 2:00 0.0 l/m2 in 6 Std. -
Fr, 24.05. 20:00 2 l/m2 in 12 Std. -
Fr, 24.05. 14:00 2 l/m2 in 6 Std. Regen
Fr, 24.05. 8:00 19 l/m2 in 12 Std. Regen
Fr, 24.05. 2:00 8 l/m2 in 6 Std. Regen
Ortszeit Niederschlagsmenge Niederschlagsart
Sa, 25.05. 23:00 0.0 l/m2 in 1 Std. -
Sa, 25.05. 22:50 keine Meldung -
Sa, 25.05. 22:40 keine Meldung -
Sa, 25.05. 22:30 0.0 l/m2 in 30 Min -
Sa, 25.05. 22:20 keine Meldung -
Sa, 25.05. 22:10 keine Meldung -
Sa, 25.05. 22:00 0.0 l/m2 in 1 Std. -
Sa, 25.05. 21:30 0.0 l/m2 in 30 Min -
Sa, 25.05. 21:00 0.0 l/m2 in 1 Std. -
Sa, 25.05. 20:30 0.0 l/m2 in 30 Min -
Sa, 25.05. 20:00 0.0 l/m2 in 1 Std. -
Ortszeit Stärke Spitze Richtung
km/h Bft. km/h Grad Sektor
Sa, 25.05. 20:00 11 2 22 320° NW
Sa, 25.05. 14:00 9 2 22 160° S
Sa, 25.05. 8:00 11 2 18 150° SO
Sa, 25.05. 2:00 7 2 14 150° SO
Fr, 24.05. 20:00 2 1 28 240° SW
Fr, 24.05. 14:00 7 2 18 130° SO
Fr, 24.05. 8:00 9 2 13 170° S
Fr, 24.05. 2:00 7 2 25 190° S
Ortszeit Stärke Spitze Richtung
km/h Bft. km/h Grad Sektor
Sa, 25.05. 23:00 4 1 7 310° NW
Sa, 25.05. 22:50 4 1 - 310° NW
Sa, 25.05. 22:40 4 1 - 300° NW
Sa, 25.05. 22:30 4 1 7 330° NW
Sa, 25.05. 22:20 4 1 - 330° NW
Sa, 25.05. 22:10 4 1 - 320° NW
Sa, 25.05. 22:00 4 1 11 330° NW
Sa, 25.05. 21:30 7 2 11 300° NW
Sa, 25.05. 21:00 9 2 19 300° NW
Sa, 25.05. 20:30 11 2 19 300° NW
Sa, 25.05. 20:00 11 2 14 320° NW
Ortszeit Untergrenze Bedeckung Gattung
total tief tief mittel hoch
Sa, 25.05. 20:00 - 0/8 0/8 - - -
Sa, 25.05. 14:00 6900 m 5/8 1/8 - - -
Sa, 25.05. 8:00 2400 m 7/8 7/8 - - -
Sa, 25.05. 2:00 1110 m 6/8 6/8 - - -
Fr, 24.05. 20:00 4800 m 8/8 8/8 - - -
Fr, 24.05. 14:00 870 m 8/8 1/8 - - -
Fr, 24.05. 8:00 150 m 8/8 8/8 - - -
Fr, 24.05. 2:00 150 m 8/8 8/8 - - -
Ortszeit Bedeckungsgrad in Achtel und Wolkenuntergrenze
Sa, 25.05. 23:00 keine Wolken
Sa, 25.05. 22:50 keine Wolken
Sa, 25.05. 22:40 keine Wolken
Sa, 25.05. 22:30 4(4800m) 4(6600m)
Sa, 25.05. 22:20 4(4800m) 4(6600m)
Sa, 25.05. 22:10 7
Sa, 25.05. 22:00 8(4500m) 8(6300m)
Sa, 25.05. 21:30 1(3000m) 8(4800m) 8(6300m)
Sa, 25.05. 21:00 5(5700m) 8(7200m)
Sa, 25.05. 20:30 2(7800m)
Sa, 25.05. 20:00 keine Wolken
Ortszeit Luftdruck NN (hPa) Tendenz (hPa in 3 Std.)
Sa, 25.05. 20:00 1017 + 0,1
Sa, 25.05. 14:00 1017 - 0,7
Sa, 25.05. 8:00 1018 + 0,4
Sa, 25.05. 2:00 1018 0,0
Fr, 24.05. 20:00 1017 0,0
Fr, 24.05. 14:00 1018 - 0,8
Fr, 24.05. 8:00 1018 + 0,3
Fr, 24.05. 2:00 1018 + 0,2
Ortszeit Luftdruck NN (hPa) Tendenz (hPa in 3 Std.)
Sa, 25.05. 23:00 1018 + 1,2
Sa, 25.05. 22:50 1018 keine Meldung
Sa, 25.05. 22:40 1018 keine Meldung
Sa, 25.05. 22:30 1018 + 1,1
Sa, 25.05. 22:20 1018 keine Meldung
Sa, 25.05. 22:10 1018 keine Meldung
Sa, 25.05. 22:00 1017 + 1,0
Sa, 25.05. 21:30 1017 + 1,0
Sa, 25.05. 21:00 1017 + 0,7
Sa, 25.05. 20:30 1017 + 0,6
Sa, 25.05. 20:00 1017 + 0,1
Ortszeit Schneehöhe (cm)
Sa, 25.05. 20:00 0
Sa, 25.05. 14:00 0
Sa, 25.05. 8:00 0
Sa, 25.05. 2:00 0
Fr, 24.05. 20:00 0
Fr, 24.05. 14:00 0
Fr, 24.05. 8:00 0
Fr, 24.05. 2:00 0
Ortszeit Schneehöhe (cm)
Sa, 25.05. 23:00 0
Sa, 25.05. 22:50 0
Sa, 25.05. 22:40 -
Sa, 25.05. 22:30 0
Sa, 25.05. 22:20 0
Sa, 25.05. 22:10 -
Sa, 25.05. 22:00 0
Sa, 25.05. 21:30 0
Sa, 25.05. 21:00 0
Sa, 25.05. 20:30 0
Sa, 25.05. 20:00 0
Link zu dieser Seite / Seite empfehlen

Das Wetter in ...